createdAt,value
2023-04-16T00:00:59.669Z,10.27
2023-04-16T00:03:27.897Z,10.14
2023-04-16T00:05:56.824Z,10.39
2023-04-16T00:08:25.553Z,10.41
2023-04-16T00:10:55.493Z,10.44
2023-04-16T00:13:23.551Z,10.34
2023-04-16T00:15:51.578Z,10.27
2023-04-16T00:18:22.514Z,10.35
2023-04-16T00:20:53.496Z,10.32
2023-04-16T00:23:21.529Z,10.21
2023-04-16T00:25:53.615Z,10.37
2023-04-16T00:28:22.688Z,9.99
2023-04-16T00:30:50.355Z,10.63
2023-04-16T00:33:18.312Z,10.59
2023-04-16T00:35:48.336Z,10.56
2023-04-16T00:38:16.241Z,10.28
2023-04-16T00:40:43.920Z,10.00
2023-04-16T00:43:11.876Z,10.00
2023-04-16T00:45:41.087Z,10.16
2023-04-16T00:48:08.836Z,10.25
2023-04-16T00:50:38.922Z,10.30
2023-04-16T00:53:06.767Z,10.46
2023-04-16T00:55:34.638Z,9.85
2023-04-16T00:58:02.336Z,10.27
2023-04-16T01:00:30.343Z,10.59
2023-04-16T01:03:00.303Z,10.39
2023-04-16T01:05:28.249Z,10.61
2023-04-16T01:07:59.689Z,10.70
2023-04-16T01:10:27.496Z,11.00
2023-04-16T01:12:59.990Z,10.62
2023-04-16T01:15:28.154Z,10.83
2023-04-16T01:17:56.032Z,10.92
2023-04-16T01:20:25.509Z,10.34
2023-04-16T01:22:54.617Z,10.24
2023-04-16T01:25:22.468Z,10.32
2023-04-16T01:27:54.778Z,10.45
2023-04-16T01:30:22.448Z,10.44
2023-04-16T01:33:01.722Z,10.65
2023-04-16T01:35:30.982Z,9.93
2023-04-16T01:38:00.367Z,10.78
2023-04-16T01:40:28.030Z,10.54
2023-04-16T01:42:55.765Z,10.56
2023-04-16T01:45:23.488Z,10.59
2023-04-16T01:47:51.918Z,10.71
2023-04-16T01:50:20.098Z,10.13
2023-04-16T01:52:47.994Z,10.83
2023-04-16T01:55:17.255Z,10.74
2023-04-16T01:57:45.117Z,10.74
2023-04-16T02:00:14.604Z,10.89
2023-04-16T02:02:49.313Z,10.64
2023-04-16T02:05:25.018Z,10.59
2023-04-16T02:07:53.551Z,10.24
2023-04-16T02:10:22.625Z,10.33
2023-04-16T02:12:51.075Z,10.36
2023-04-16T02:15:18.824Z,10.11
2023-04-16T02:17:48.706Z,10.47
2023-04-16T02:20:17.688Z,10.37
2023-04-16T02:22:54.060Z,10.56
2023-04-16T02:25:26.149Z,10.26
2023-04-16T02:27:56.381Z,10.30
2023-04-16T02:30:38.974Z,10.49
2023-04-16T02:33:08.935Z,10.57
2023-04-16T02:35:39.117Z,10.80
2023-04-16T02:38:07.494Z,10.57
2023-04-16T02:40:37.832Z,10.77
2023-04-16T02:43:05.625Z,10.37
2023-04-16T02:45:34.583Z,10.31
2023-04-16T02:48:07.227Z,10.44
2023-04-16T02:50:35.079Z,10.46
2023-04-16T02:53:04.216Z,10.29
2023-04-16T02:55:31.946Z,10.17
2023-04-16T02:58:01.108Z,10.42
2023-04-16T03:00:28.944Z,10.69
2023-04-16T03:02:57.203Z,10.45
2023-04-16T03:05:25.439Z,10.17
2023-04-16T03:07:56.682Z,10.71
2023-04-16T03:10:24.942Z,10.63
2023-04-16T03:12:52.779Z,10.22
2023-04-16T03:15:21.919Z,10.51
2023-04-16T03:17:49.705Z,10.44
2023-04-16T03:20:18.110Z,10.82
2023-04-16T03:22:49.822Z,10.66
2023-04-16T03:25:17.593Z,10.73
2023-04-16T03:27:45.836Z,10.71
2023-04-16T03:30:16.361Z,11.23
2023-04-16T03:32:46.093Z,10.64
2023-04-16T03:35:13.924Z,10.57
2023-04-16T03:37:42.635Z,10.84
2023-04-16T03:40:11.155Z,11.10
2023-04-16T03:42:39.121Z,10.67
2023-04-16T03:45:09.537Z,10.39
2023-04-16T03:47:38.438Z,10.20
2023-04-16T03:50:08.490Z,10.30
2023-04-16T03:52:37.321Z,9.93
2023-04-16T03:55:05.956Z,10.35
2023-04-16T03:57:33.843Z,10.53
2023-04-16T04:00:08.875Z,10.94
2023-04-16T04:02:51.036Z,10.37
2023-04-16T04:05:22.053Z,10.39
2023-04-16T04:07:50.762Z,10.09
2023-04-16T04:10:18.467Z,10.20
2023-04-16T04:12:46.386Z,10.18
2023-04-16T04:15:14.294Z,9.73
2023-04-16T04:17:43.543Z,10.16
2023-04-16T04:20:12.936Z,10.28
2023-04-16T04:22:46.325Z,10.33
2023-04-16T04:25:16.247Z,10.74
2023-04-16T04:27:44.518Z,10.87
2023-04-16T04:30:13.145Z,10.65
2023-04-16T04:32:45.042Z,10.60
2023-04-16T04:35:13.105Z,10.76
2023-04-16T04:37:42.577Z,10.60
2023-04-16T04:40:22.655Z,10.70
2023-04-16T04:42:50.404Z,10.71
2023-04-16T04:45:18.336Z,10.64
2023-04-16T04:47:46.261Z,10.57
2023-04-16T04:50:14.188Z,10.79
2023-04-16T04:52:42.222Z,10.58
2023-04-16T04:55:10.568Z,10.09
2023-04-16T04:57:39.778Z,10.29
2023-04-16T05:00:11.943Z,10.34
2023-04-16T05:02:45.415Z,10.35
2023-04-16T05:05:13.348Z,10.61
2023-04-16T05:07:41.160Z,10.13
2023-04-16T05:10:12.519Z,10.13
2023-04-16T05:12:41.983Z,10.56
2023-04-16T05:15:10.611Z,10.31
2023-04-16T05:17:38.395Z,10.20
2023-04-16T05:20:07.105Z,10.65
2023-04-16T05:22:34.857Z,10.23
2023-04-16T05:25:04.291Z,10.57
2023-04-16T05:27:32.069Z,10.08
2023-04-16T05:30:01.327Z,10.20
2023-04-16T05:32:32.021Z,10.46
2023-04-16T05:34:59.992Z,10.41
2023-04-16T05:37:27.742Z,10.93
2023-04-16T05:39:55.517Z,10.40
2023-04-16T05:42:23.208Z,10.78
2023-04-16T05:44:52.050Z,10.67
2023-04-16T05:47:21.461Z,10.72
2023-04-16T05:49:49.346Z,10.87
2023-04-16T05:52:17.099Z,10.95
2023-04-16T05:54:44.863Z,10.67
2023-04-16T05:57:12.705Z,10.55
2023-04-16T05:59:40.444Z,10.67
2023-04-16T06:02:08.413Z,10.87
2023-04-16T06:04:37.564Z,10.37
2023-04-16T06:07:07.016Z,10.69
2023-04-16T06:09:34.805Z,10.12
2023-04-16T06:12:02.612Z,9.88
2023-04-16T06:14:30.408Z,10.17
2023-04-16T06:16:58.186Z,10.10
2023-04-16T06:19:25.974Z,10.65
2023-04-16T06:21:55.520Z,10.17
2023-04-16T06:24:23.364Z,10.32
2023-04-16T06:26:51.292Z,10.37
2023-04-16T06:29:18.992Z,10.84
2023-04-16T06:31:46.933Z,10.20
2023-04-16T06:34:14.778Z,10.39
2023-04-16T06:36:42.493Z,9.94
2023-04-16T06:39:11.766Z,10.40
2023-04-16T06:41:39.720Z,10.55
2023-04-16T06:44:07.402Z,10.35
2023-04-16T06:46:35.280Z,10.61
2023-04-16T06:49:03.162Z,10.30
2023-04-16T06:51:31.167Z,10.43
2023-04-16T06:53:58.902Z,10.57
2023-04-16T06:56:28.037Z,10.94
2023-04-16T06:58:57.111Z,10.53
2023-04-16T07:01:26.063Z,10.56
2023-04-16T07:03:54.088Z,10.83
2023-04-16T07:06:24.508Z,10.83
2023-04-16T07:08:52.215Z,10.72
2023-04-16T07:11:20.918Z,10.36
2023-04-16T07:13:54.147Z,10.65
2023-04-16T07:16:21.955Z,11.00
2023-04-16T07:18:49.759Z,11.00
2023-04-16T07:21:17.512Z,10.81
2023-04-16T07:23:45.500Z,10.89
2023-04-16T07:26:16.364Z,10.82
2023-04-16T07:28:44.214Z,10.93
2023-04-16T07:31:13.419Z,10.82
2023-04-16T07:33:41.242Z,10.93
2023-04-16T07:36:09.048Z,11.22
2023-04-16T07:38:36.774Z,11.03
2023-04-16T07:41:07.053Z,11.14
2023-04-16T07:43:34.792Z,10.92
2023-04-16T07:46:02.620Z,10.81
2023-04-16T07:48:31.885Z,11.36
2023-04-16T07:50:59.718Z,10.91
2023-04-16T07:53:27.522Z,10.88
2023-04-16T07:55:55.309Z,10.71
2023-04-16T07:58:23.082Z,10.85
2023-04-16T08:00:51.125Z,10.79
2023-04-16T08:03:19.464Z,10.62
2023-04-16T08:05:49.167Z,10.37
2023-04-16T08:08:16.939Z,10.64
2023-04-16T08:10:44.754Z,10.32
2023-04-16T08:13:12.689Z,10.78
2023-04-16T08:15:40.752Z,10.45
2023-04-16T08:18:12.930Z,10.55
2023-04-16T08:20:40.790Z,10.73
2023-04-16T08:23:10.037Z,10.88
2023-04-16T08:25:37.824Z,10.85
2023-04-16T08:28:06.383Z,10.61
2023-04-16T08:30:34.657Z,11.09
2023-04-16T08:33:02.603Z,10.62
2023-04-16T08:35:30.478Z,10.65
2023-04-16T08:38:01.776Z,11.22
2023-04-16T08:40:36.583Z,10.72
2023-04-16T08:43:07.011Z,10.41
2023-04-16T08:45:36.097Z,10.93
2023-04-16T08:48:06.579Z,10.86
2023-04-16T08:50:34.806Z,10.51
2023-04-16T08:53:06.123Z,10.85
2023-04-16T08:55:38.965Z,10.72
2023-04-16T08:58:14.688Z,11.19
2023-04-16T09:00:46.090Z,11.45
2023-04-16T09:03:14.504Z,11.06
2023-04-16T09:05:43.700Z,11.37
2023-04-16T09:08:13.595Z,10.78
2023-04-16T09:10:44.062Z,11.47
2023-04-16T09:13:13.359Z,11.23
2023-04-16T09:15:42.331Z,11.39
2023-04-16T09:18:12.470Z,11.37
2023-04-16T09:20:40.567Z,11.02
2023-04-16T09:23:08.255Z,11.31
2023-04-16T09:25:37.184Z,11.26
2023-04-16T09:28:06.527Z,10.76
2023-04-16T09:30:34.948Z,11.54
2023-04-16T09:33:16.871Z,11.55
2023-04-16T09:35:48.565Z,11.53
2023-04-16T09:38:17.501Z,11.52
2023-04-16T09:40:47.489Z,11.69
2023-04-16T09:43:19.220Z,11.19
2023-04-16T09:45:51.793Z,11.27
2023-04-16T09:48:33.329Z,10.74
2023-04-16T09:51:02.120Z,11.14
2023-04-16T09:53:33.262Z,11.06
2023-04-16T09:56:02.881Z,11.57
2023-04-16T09:58:32.083Z,12.01
2023-04-16T10:01:02.423Z,11.03
2023-04-16T10:03:32.065Z,10.82
2023-04-16T10:06:02.439Z,10.68
2023-04-16T10:08:30.476Z,10.56
2023-04-16T10:10:58.810Z,10.88
2023-04-16T10:13:27.882Z,11.36
2023-04-16T10:15:58.886Z,11.03
2023-04-16T10:18:27.128Z,11.34
2023-04-16T10:20:55.379Z,11.31
2023-04-16T10:23:23.582Z,11.56
2023-04-16T10:25:51.828Z,10.86
2023-04-16T10:28:19.937Z,10.68
2023-04-16T10:30:53.518Z,9.97
2023-04-16T10:33:24.296Z,10.64
2023-04-16T10:36:01.344Z,10.13
2023-04-16T10:38:35.199Z,9.93
2023-04-16T10:41:04.811Z,10.16
2023-04-16T10:43:34.293Z,10.42
2023-04-16T10:46:20.546Z,10.09
2023-04-16T10:48:51.387Z,10.78
2023-04-16T10:51:31.376Z,10.65
2023-04-16T10:54:03.969Z,10.99
2023-04-16T10:56:33.893Z,10.97
2023-04-16T10:59:06.455Z,11.10
2023-04-16T11:01:35.786Z,11.22
2023-04-16T11:04:29.563Z,10.66
2023-04-16T11:07:05.799Z,11.26
2023-04-16T11:09:53.624Z,11.05
2023-04-16T11:12:23.133Z,10.76
2023-04-16T11:14:52.531Z,11.18
2023-04-16T11:17:20.783Z,10.68
2023-04-16T11:19:50.192Z,10.89
2023-04-16T11:22:21.499Z,11.00
2023-04-16T11:24:54.598Z,11.30
2023-04-16T11:27:22.434Z,11.16
2023-04-16T11:29:58.785Z,10.90
2023-04-16T11:32:26.687Z,11.26
2023-04-16T11:34:55.822Z,10.88
2023-04-16T11:37:34.010Z,10.84
2023-04-16T11:40:04.743Z,10.72
2023-04-16T11:42:32.720Z,11.17
2023-04-16T11:45:01.372Z,11.32
2023-04-16T11:47:31.237Z,10.92
2023-04-16T11:50:17.574Z,11.22
2023-04-16T11:52:48.320Z,10.91
2023-04-16T11:55:19.053Z,12.53
2023-04-16T11:57:47.143Z,11.86
2023-04-16T12:00:16.042Z,12.08
2023-04-16T12:02:45.255Z,12.13
2023-04-16T12:05:32.047Z,12.17
2023-04-16T12:08:00.709Z,12.00
2023-04-16T12:10:28.777Z,12.09
2023-04-16T12:13:10.971Z,12.32
2023-04-16T12:15:49.011Z,11.99
2023-04-16T12:18:17.387Z,12.23
2023-04-16T12:20:47.478Z,11.94
2023-04-16T12:23:27.385Z,11.80
2023-04-16T12:25:55.932Z,11.94
2023-04-16T12:28:33.876Z,11.96
2023-04-16T12:31:02.023Z,11.80
2023-04-16T12:33:30.073Z,11.94
2023-04-16T12:36:01.535Z,11.80
2023-04-16T12:38:29.852Z,11.65
2023-04-16T12:40:58.281Z,11.88
2023-04-16T12:43:26.683Z,12.18
2023-04-16T12:45:54.623Z,11.70
2023-04-16T12:48:25.388Z,11.61
2023-04-16T12:50:54.799Z,11.52
2023-04-16T12:53:24.046Z,12.02
2023-04-16T12:55:51.907Z,11.10
2023-04-16T12:58:19.789Z,11.37
2023-04-16T13:00:47.599Z,11.94
2023-04-16T13:03:16.096Z,11.88
2023-04-16T13:05:44.144Z,11.73
2023-04-16T13:08:12.158Z,11.63
2023-04-16T13:10:41.242Z,11.29
2023-04-16T13:13:08.926Z,11.12
2023-04-16T13:15:36.871Z,11.98
2023-04-16T13:18:07.414Z,12.02
2023-04-16T13:20:36.033Z,11.98
2023-04-16T13:23:04.890Z,12.05
2023-04-16T13:25:32.712Z,11.67
2023-04-16T13:28:03.378Z,11.95
2023-04-16T13:30:31.726Z,11.63
2023-04-16T13:32:59.632Z,12.11
2023-04-16T13:35:27.549Z,12.08
2023-04-16T13:37:55.226Z,11.86
2023-04-16T13:40:23.087Z,11.81
2023-04-16T13:42:50.782Z,11.94
2023-04-16T13:45:21.033Z,12.31
2023-04-16T13:47:50.024Z,11.91
2023-04-16T13:50:18.009Z,12.30
2023-04-16T13:52:45.842Z,12.19
2023-04-16T13:55:14.252Z,12.28
2023-04-16T13:57:44.218Z,12.63
2023-04-16T14:00:13.416Z,12.35
2023-04-16T14:02:46.011Z,12.24
2023-04-16T14:05:13.845Z,12.09
2023-04-16T14:07:41.590Z,12.25
2023-04-16T14:10:13.305Z,12.23
2023-04-16T14:12:41.295Z,12.30
2023-04-16T14:15:10.770Z,12.26
2023-04-16T14:17:38.574Z,12.14
2023-04-16T14:20:08.854Z,12.08
2023-04-16T14:22:36.596Z,12.10
2023-04-16T14:25:04.644Z,12.56
2023-04-16T14:27:32.595Z,12.51
2023-04-16T14:30:00.678Z,12.30
2023-04-16T14:32:28.674Z,12.21
2023-04-16T14:34:57.633Z,12.01
2023-04-16T14:37:27.585Z,11.67
2023-04-16T14:39:55.520Z,11.86
2023-04-16T14:42:23.430Z,12.15
2023-04-16T14:44:52.212Z,12.20
2023-04-16T14:47:20.160Z,11.89
2023-04-16T14:49:48.240Z,12.05
2023-04-16T14:52:16.085Z,12.34
2023-04-16T14:54:45.158Z,11.98
2023-04-16T14:57:13.056Z,12.02
2023-04-16T14:59:41.277Z,11.72
2023-04-16T15:02:10.493Z,12.38
2023-04-16T15:04:38.373Z,11.65
2023-04-16T15:07:06.304Z,11.93
2023-04-16T15:09:35.613Z,11.55
2023-04-16T15:12:05.129Z,11.58
2023-04-16T15:14:33.022Z,11.45
2023-04-16T15:17:00.899Z,12.27
2023-04-16T15:19:28.813Z,12.01
2023-04-16T15:21:56.799Z,11.96
2023-04-16T15:24:24.593Z,11.52
2023-04-16T15:26:52.475Z,11.77
2023-04-16T15:29:21.995Z,11.45
2023-04-16T15:31:49.771Z,12.08
2023-04-16T15:34:21.497Z,12.14
2023-04-16T15:36:52.409Z,11.99
2023-04-16T15:39:21.022Z,12.09
2023-04-16T15:42:00.550Z,12.29
2023-04-16T15:44:31.111Z,11.67
2023-04-16T15:47:00.184Z,11.99
2023-04-16T15:49:28.008Z,12.20
2023-04-16T15:51:56.556Z,12.40
2023-04-16T15:54:24.674Z,12.43
2023-04-16T15:56:52.546Z,12.55
2023-04-16T15:59:20.309Z,12.36
2023-04-16T16:01:49.622Z,12.22
2023-04-16T16:04:19.418Z,12.23
2023-04-16T16:06:47.437Z,12.50
2023-04-16T16:09:19.677Z,11.72
2023-04-16T16:11:47.621Z,12.26
2023-04-16T16:14:18.549Z,11.85
2023-04-16T16:16:46.551Z,12.00
2023-04-16T16:19:15.730Z,11.86
2023-04-16T16:21:43.826Z,12.22
2023-04-16T16:24:11.639Z,12.45
2023-04-16T16:26:39.387Z,12.48
2023-04-16T16:29:07.447Z,12.51
2023-04-16T16:31:36.375Z,12.25
2023-04-16T16:34:07.218Z,12.40
2023-04-16T16:36:37.568Z,12.33
2023-04-16T16:39:05.441Z,12.28
2023-04-16T16:41:37.460Z,12.55
2023-04-16T16:44:05.500Z,11.95
2023-04-16T16:46:33.282Z,12.22
2023-04-16T16:49:01.016Z,12.18
2023-04-16T16:51:30.440Z,12.58
2023-04-16T16:53:59.627Z,12.66
2023-04-16T16:56:28.143Z,12.97
2023-04-16T16:58:55.989Z,12.97
2023-04-16T17:01:23.771Z,13.06
2023-04-16T17:03:51.943Z,12.67
2023-04-16T17:06:20.104Z,12.76
2023-04-16T17:08:48.628Z,13.12
2023-04-16T17:11:20.484Z,13.28
2023-04-16T17:13:48.335Z,13.17
2023-04-16T17:16:17.601Z,13.24
2023-04-16T17:18:45.808Z,13.27
2023-04-16T17:21:15.829Z,13.49
2023-04-16T17:23:44.277Z,13.35
2023-04-16T17:26:12.069Z,13.53
2023-04-16T17:28:41.300Z,13.26
2023-04-16T17:31:11.335Z,13.40
2023-04-16T17:33:39.093Z,13.44
2023-04-16T17:36:08.003Z,13.47
2023-04-16T17:38:35.753Z,12.92
2023-04-16T17:41:03.557Z,12.46
2023-04-16T17:43:31.472Z,12.66
2023-04-16T17:46:00.941Z,12.60
2023-04-16T17:48:28.695Z,12.75
2023-04-16T17:50:56.437Z,12.65
2023-04-16T17:53:24.378Z,12.76
2023-04-16T17:55:56.730Z,12.83
2023-04-16T17:58:26.486Z,12.70
2023-04-16T18:00:55.911Z,13.21
2023-04-16T18:03:25.456Z,13.29
2023-04-16T18:05:53.482Z,13.36
2023-04-16T18:08:21.380Z,13.13
2023-04-16T18:10:49.150Z,13.23
2023-04-16T18:13:16.954Z,13.08
2023-04-16T18:15:45.013Z,12.82
2023-04-16T18:18:12.706Z,12.93
2023-04-16T18:20:42.360Z,12.92
2023-04-16T18:23:10.195Z,12.83
2023-04-16T18:25:38.190Z,13.42
2023-04-16T18:28:08.049Z,13.23
2023-04-16T18:30:36.130Z,12.84
2023-04-16T18:33:34.404Z,12.79
2023-04-16T18:35:57.947Z,12.86
2023-04-16T18:38:26.016Z,12.62
2023-04-16T18:40:53.936Z,12.86
2023-04-16T18:43:21.646Z,12.86
2023-04-16T18:45:49.363Z,12.69
2023-04-16T18:48:17.187Z,12.33
2023-04-16T18:50:44.908Z,12.61
2023-04-16T18:53:14.090Z,12.46
2023-04-16T18:55:41.834Z,12.63
2023-04-16T18:58:10.898Z,12.80
2023-04-16T19:00:38.742Z,12.84
2023-04-16T19:03:07.459Z,13.12
2023-04-16T19:05:35.421Z,12.54
2023-04-16T19:08:03.258Z,12.28
2023-04-16T19:10:32.422Z,12.69
2023-04-16T19:13:00.354Z,12.44
2023-04-16T19:15:30.061Z,13.12
2023-04-16T19:17:59.362Z,13.07
2023-04-16T19:20:27.106Z,13.26
2023-04-16T19:22:56.723Z,13.37
2023-04-16T19:25:24.424Z,13.25
2023-04-16T19:27:55.707Z,13.10
2023-04-16T19:30:23.536Z,13.14
2023-04-16T19:32:53.830Z,13.17
2023-04-16T19:35:22.889Z,13.47
2023-04-16T19:37:50.878Z,13.60
2023-04-16T19:40:19.010Z,12.87
2023-04-16T19:42:47.020Z,12.70
2023-04-16T19:45:17.592Z,12.68
2023-04-16T19:47:45.801Z,12.61
2023-04-16T19:50:13.851Z,12.61
2023-04-16T19:52:41.885Z,12.57
2023-04-16T19:55:10.433Z,12.50
2023-04-16T19:57:38.275Z,12.86
2023-04-16T20:00:09.511Z,12.93
2023-04-16T20:02:38.862Z,13.14
2023-04-16T20:05:07.152Z,13.32
2023-04-16T20:07:34.983Z,12.79
2023-04-16T20:10:03.238Z,12.44
2023-04-16T20:12:31.043Z,12.45
2023-04-16T20:14:58.772Z,12.69
2023-04-16T20:17:26.597Z,13.24
2023-04-16T20:20:00.757Z,13.20
2023-04-16T20:22:28.752Z,13.61
2023-04-16T20:24:56.651Z,13.45
2023-04-16T20:27:24.524Z,13.40
2023-04-16T20:29:54.927Z,13.22
2023-04-16T20:32:22.790Z,13.61
2023-04-16T20:34:50.641Z,13.55
2023-04-16T20:37:19.720Z,13.81
2023-04-16T20:39:50.089Z,13.39
2023-04-16T20:42:17.997Z,13.61
2023-04-16T20:44:50.318Z,13.88
2023-04-16T20:47:18.614Z,13.39
2023-04-16T20:49:47.130Z,13.10
2023-04-16T20:52:15.473Z,13.33
2023-04-16T20:54:44.549Z,13.67
2023-04-16T20:57:12.308Z,13.63
2023-04-16T20:59:40.055Z,13.57
2023-04-16T21:02:08.023Z,13.54
2023-04-16T21:04:36.230Z,13.51
2023-04-16T21:07:04.420Z,13.55
2023-04-16T21:09:32.276Z,13.33
2023-04-16T21:12:01.490Z,13.27
2023-04-16T21:14:29.230Z,13.44
2023-04-16T21:16:56.961Z,12.82
2023-04-16T21:19:24.653Z,12.45
2023-04-16T21:21:52.408Z,12.48
2023-04-16T21:24:20.306Z,12.67
2023-04-16T21:26:48.050Z,12.70
2023-04-16T21:29:17.087Z,12.62
2023-04-16T21:31:44.869Z,12.67
2023-04-16T21:34:12.608Z,12.67
2023-04-16T21:36:43.327Z,12.12
2023-04-16T21:39:11.423Z,12.68
2023-04-16T21:41:41.266Z,12.55
2023-04-16T21:44:09.093Z,12.42
2023-04-16T21:46:38.218Z,12.25
2023-04-16T21:49:14.700Z,12.39
2023-04-16T21:51:42.977Z,12.32
2023-04-16T21:54:10.702Z,12.55
2023-04-16T21:56:40.133Z,12.69
2023-04-16T21:59:08.013Z,12.57
2023-04-16T22:01:35.857Z,12.39
2023-04-16T22:04:05.943Z,12.47
2023-04-16T22:06:33.840Z,13.10
2023-04-16T22:09:01.544Z,12.38
2023-04-16T22:11:32.266Z,12.23
2023-04-16T22:14:03.028Z,12.07
2023-04-16T22:16:31.059Z,12.16
2023-04-16T22:18:59.249Z,12.08
2023-04-16T22:21:31.265Z,12.26
2023-04-16T22:24:02.620Z,12.34
2023-04-16T22:26:30.398Z,11.70
2023-04-16T22:28:59.816Z,12.10
2023-04-16T22:31:27.508Z,11.91
2023-04-16T22:33:55.427Z,12.63
2023-04-16T22:36:23.317Z,12.63
2023-04-16T22:38:52.477Z,12.13
2023-04-16T22:41:20.249Z,12.60
2023-04-16T22:43:52.496Z,12.74
2023-04-16T22:46:22.165Z,13.07
2023-04-16T22:48:50.771Z,13.01
2023-04-16T22:51:18.428Z,12.90
2023-04-16T22:53:46.412Z,12.73
2023-04-16T22:56:15.513Z,12.42
2023-04-16T22:58:43.246Z,12.99
2023-04-16T23:01:11.269Z,13.08
2023-04-16T23:03:39.137Z,13.47
2023-04-16T23:06:07.408Z,13.48
2023-04-16T23:08:35.515Z,13.07
2023-04-16T23:11:03.406Z,12.88
2023-04-16T23:13:32.520Z,12.56
2023-04-16T23:16:03.416Z,12.91
2023-04-16T23:18:31.284Z,12.16
2023-04-16T23:20:59.056Z,12.18
2023-04-16T23:23:26.819Z,12.54
2023-04-16T23:25:54.684Z,12.70
2023-04-16T23:28:22.768Z,12.60
2023-04-16T23:30:53.708Z,12.66
2023-04-16T23:33:21.595Z,12.18
2023-04-16T23:35:49.340Z,12.65
2023-04-16T23:38:17.057Z,11.88
2023-04-16T23:40:44.955Z,12.07
2023-04-16T23:43:16.017Z,12.53
2023-04-16T23:45:44.747Z,12.17
2023-04-16T23:48:13.888Z,12.17
2023-04-16T23:50:41.677Z,12.12
2023-04-16T23:53:09.371Z,12.26
2023-04-16T23:55:37.076Z,12.33
2023-04-16T23:58:04.800Z,12.15
